Pagina principale
METAR-TAF:

METAR-TAF

Aeroporti :

Aeroporto di Cervia-Pisignano

Cervia, Italia

latitudine: 44-13N, longitudine: 012-18E, altezza: 6 m

Osservazione

Il bollettino è stato emesso 49 minuti fa, alle 04:55 UTC
Vento 3 kt da ovest
Temperature 18°C
Umidità 94%
Pressione 1014 hPa
Visibilità 10 km o più
nessuna nube inferiore a 1500 m e nessun cumulonembo

METAR: LIPC 190455Z 26003KT CAVOK 18/17 Q1014 RMK SKC VIS MIN 9999 WIND THR11 /////KT WIND THR29 28003KT BLU

Ora: 07:44 (05:44 UTC)

Previsione

Il bollettino è stato emesso 44 minuti fa, alle 05:00 UTC
Previsione valida dal 19 alle 06 UTC al 19 alle 15 UTC
Vento 5 kt da ovest/sud-ovest
Visibilità 10 km o più
nessuna nube inferiore a 1500 m e nessun cumulonembo
Evoluzione graduale
dal 19 alle 12 UTC al 19 alle 14 UTC
Vento 10 kt da est

TAF: LIPC 190500Z 1906/1915 25005KT CAVOK BECMG 1912/1914 10010KT

Osservazioni e previsioni meteorologiche di più di 4000 aeroporti (messaggi METAR e TAF).

Le stazioni disponibili sono rappresentate dai dischi gialli e rossi sulla carta.

Puntare il mouse per vedere il nome della stazione.

Clicca sopra per visualizzare le osservazioni e previsioni meteorologiche.

Per cambiare la mappa : fare clic sui pulsanti verdi con una croce nera per ingrandire, il pulsante verde con un trattino per diminuire, o sulla freccia verde per le mappe adiacenti.


METAR-TAF: